createdAt,value
2023-05-22T00:01:45.007Z,16.34
2023-05-22T00:04:13.571Z,16.32
2023-05-22T00:06:44.646Z,16.25
2023-05-22T00:09:12.091Z,16.22
2023-05-22T00:11:39.952Z,16.15
2023-05-22T00:14:07.342Z,16.14
2023-05-22T00:16:35.026Z,16.14
2023-05-22T00:19:02.510Z,16.03
2023-05-22T00:21:34.813Z,16.04
2023-05-22T00:24:03.126Z,15.99
2023-05-22T00:26:30.904Z,16.02
2023-05-22T00:28:58.370Z,16.03
2023-05-22T00:31:26.277Z,15.92
2023-05-22T00:33:53.670Z,15.88
2023-05-22T00:36:21.345Z,15.87
2023-05-22T00:38:48.641Z,15.86
2023-05-22T00:41:16.653Z,15.81
2023-05-22T00:43:45.695Z,15.77
2023-05-22T00:46:13.415Z,15.79
2023-05-22T00:48:40.706Z,15.67
2023-05-22T00:51:08.931Z,15.69
2023-05-22T00:53:37.252Z,15.79
2023-05-22T00:56:07.253Z,15.70
2023-05-22T00:58:34.627Z,15.68
2023-05-22T01:01:02.383Z,15.68
2023-05-22T01:03:30.138Z,15.68
2023-05-22T01:05:57.955Z,15.66
2023-05-22T01:08:25.418Z,15.59
2023-05-22T01:11:04.493Z,15.61
2023-05-22T01:14:21.203Z,15.58
2023-05-22T01:17:08.865Z,15.49
2023-05-22T01:20:01.601Z,15.47
2023-05-22T01:22:44.098Z,15.40
2023-05-22T01:25:49.430Z,15.42
2023-05-22T01:28:53.755Z,15.37
2023-05-22T01:31:27.576Z,15.39
2023-05-22T01:33:58.851Z,15.30
2023-05-22T01:36:31.944Z,15.23
2023-05-22T01:39:01.693Z,15.24
2023-05-22T01:41:31.048Z,15.13
2023-05-22T01:44:00.412Z,15.14
2023-05-22T01:46:31.732Z,15.13
2023-05-22T01:48:59.950Z,15.13
2023-05-22T01:52:03.797Z,15.02
2023-05-22T01:54:37.974Z,14.96
2023-05-22T01:57:19.392Z,14.90
2023-05-22T02:00:12.003Z,14.89
2023-05-22T02:02:43.837Z,14.81
2023-05-22T02:05:13.806Z,14.69
2023-05-22T02:07:43.527Z,14.76
2023-05-22T02:10:14.603Z,14.75
2023-05-22T02:12:42.777Z,14.82
2023-05-22T02:15:10.800Z,14.82
2023-05-22T02:17:42.691Z,14.78
2023-05-22T02:20:15.840Z,14.77
2023-05-22T02:22:44.751Z,14.65
2023-05-22T02:25:17.734Z,14.58
2023-05-22T02:27:48.017Z,14.48
2023-05-22T02:30:16.062Z,14.47
2023-05-22T02:32:43.928Z,14.42
2023-05-22T02:35:11.989Z,14.36
2023-05-22T02:37:39.597Z,14.19
2023-05-22T02:40:08.479Z,14.35
2023-05-22T02:42:36.316Z,14.31
2023-05-22T02:45:04.900Z,14.33
2023-05-22T02:47:32.228Z,14.34
2023-05-22T02:49:59.776Z,14.31
2023-05-22T02:52:28.543Z,14.30
2023-05-22T02:54:56.283Z,14.30
2023-05-22T02:57:24.045Z,14.30
2023-05-22T02:59:52.730Z,14.29
2023-05-22T03:02:20.203Z,14.37
2023-05-22T03:04:47.959Z,14.30
2023-05-22T03:07:15.369Z,14.32
2023-05-22T03:09:43.138Z,14.31
2023-05-22T03:12:10.674Z,14.29
2023-05-22T03:14:38.303Z,14.27
2023-05-22T03:17:05.941Z,14.24
2023-05-22T03:19:33.564Z,14.26
2023-05-22T03:22:01.317Z,14.25
2023-05-22T03:24:29.258Z,14.18
2023-05-22T03:26:56.674Z,14.16
2023-05-22T03:29:24.313Z,14.09
2023-05-22T03:31:51.631Z,14.18
2023-05-22T03:34:19.273Z,14.25
2023-05-22T03:36:46.652Z,14.23
2023-05-22T03:39:14.305Z,14.28
2023-05-22T03:41:41.883Z,14.32
2023-05-22T03:44:09.608Z,14.25
2023-05-22T03:46:36.963Z,14.26
2023-05-22T03:49:04.599Z,14.26
2023-05-22T03:51:31.975Z,14.30
2023-05-22T03:53:59.682Z,14.25
2023-05-22T03:56:27.201Z,14.36
2023-05-22T03:58:54.852Z,14.35
2023-05-22T04:01:22.306Z,14.39
2023-05-22T04:03:49.978Z,14.29
2023-05-22T04:06:17.739Z,14.36
2023-05-22T04:08:45.367Z,14.35
2023-05-22T04:11:15.843Z,14.36
2023-05-22T04:13:43.910Z,14.45
2023-05-22T04:16:11.341Z,14.45
2023-05-22T04:18:39.004Z,14.50
2023-05-22T04:21:08.245Z,14.56
2023-05-22T04:23:36.266Z,14.56
2023-05-22T04:26:03.788Z,14.63
2023-05-22T04:28:31.452Z,14.67
2023-05-22T04:30:58.891Z,14.64
2023-05-22T04:33:26.615Z,14.67
2023-05-22T04:35:54.676Z,14.74
2023-05-22T04:38:22.274Z,14.80
2023-05-22T04:40:50.357Z,14.88
2023-05-22T04:43:18.900Z,14.91
2023-05-22T04:45:46.461Z,15.07
2023-05-22T04:48:14.128Z,15.03
2023-05-22T04:50:41.716Z,15.09
2023-05-22T04:53:09.647Z,15.16
2023-05-22T04:55:37.086Z,15.23
2023-05-22T04:58:06.009Z,15.29
2023-05-22T05:00:33.471Z,15.27
2023-05-22T05:03:01.527Z,15.36
2023-05-22T05:05:29.062Z,15.42
2023-05-22T05:07:56.748Z,15.41
2023-05-22T05:10:24.223Z,15.52
2023-05-22T05:12:51.920Z,15.66
2023-05-22T05:15:20.081Z,15.67
2023-05-22T05:17:47.731Z,15.73
2023-05-22T05:20:15.156Z,15.83
2023-05-22T05:22:44.216Z,15.94
2023-05-22T05:25:12.066Z,16.03
2023-05-22T05:27:40.170Z,16.06
2023-05-22T05:30:08.816Z,16.24
2023-05-22T05:32:36.952Z,16.26
2023-05-22T05:35:04.740Z,16.49
2023-05-22T05:37:32.343Z,16.57
2023-05-22T05:39:59.698Z,16.66
2023-05-22T05:42:27.334Z,16.81
2023-05-22T05:44:54.660Z,16.92
2023-05-22T05:47:24.170Z,17.03
2023-05-22T05:49:51.801Z,17.07
2023-05-22T05:52:19.449Z,17.14
2023-05-22T05:54:48.199Z,17.16
2023-05-22T05:57:16.107Z,17.21
2023-05-22T05:59:43.554Z,17.31
2023-05-22T06:02:11.247Z,17.54
2023-05-22T06:04:38.797Z,17.63
2023-05-22T06:07:06.640Z,17.67
2023-05-22T06:09:34.026Z,17.66
2023-05-22T06:12:01.601Z,17.82
2023-05-22T06:14:29.078Z,17.92
2023-05-22T06:16:56.766Z,18.03
2023-05-22T06:19:24.291Z,18.06
2023-05-22T06:21:52.300Z,18.06
2023-05-22T06:24:19.721Z,18.07
2023-05-22T06:26:47.328Z,18.26
2023-05-22T06:29:14.642Z,18.38
2023-05-22T06:31:42.272Z,18.39
2023-05-22T06:34:09.742Z,18.51
2023-05-22T06:36:37.589Z,18.67
2023-05-22T06:39:05.106Z,18.81
2023-05-22T06:41:33.756Z,18.83
2023-05-22T06:44:02.423Z,18.94
2023-05-22T06:46:30.355Z,19.13
2023-05-22T06:48:57.897Z,19.36
2023-05-22T06:51:26.342Z,19.44
2023-05-22T06:53:53.726Z,19.62
2023-05-22T06:56:22.880Z,19.75
2023-05-22T06:58:51.143Z,19.81
2023-05-22T07:01:19.272Z,19.91
2023-05-22T07:03:47.287Z,20.08
2023-05-22T07:06:15.694Z,20.14
2023-05-22T07:08:43.134Z,20.19
2023-05-22T07:11:10.752Z,20.33
2023-05-22T07:13:38.110Z,20.56
2023-05-22T07:16:06.660Z,20.65
2023-05-22T07:18:34.207Z,20.93
2023-05-22T07:21:01.949Z,21.02
2023-05-22T07:23:29.313Z,21.07
2023-05-22T07:25:57.311Z,21.18
2023-05-22T07:28:24.645Z,21.20
2023-05-22T07:30:52.289Z,21.46
2023-05-22T07:33:19.576Z,21.48
2023-05-22T07:35:47.478Z,21.65
2023-05-22T07:38:14.873Z,21.91
2023-05-22T07:40:42.612Z,21.71
2023-05-22T07:43:10.122Z,21.70
2023-05-22T07:45:39.636Z,21.87
2023-05-22T07:48:07.412Z,21.86
2023-05-22T07:50:35.469Z,21.85
2023-05-22T07:53:04.900Z,22.00
2023-05-22T07:55:32.802Z,21.94
2023-05-22T07:58:00.086Z,22.03
2023-05-22T08:00:27.898Z,22.04
2023-05-22T08:02:55.430Z,22.14
2023-05-22T08:05:23.476Z,22.25
2023-05-22T08:07:50.991Z,22.42
2023-05-22T08:10:19.946Z,22.30
2023-05-22T08:12:47.401Z,22.54
2023-05-22T08:15:15.033Z,22.48
2023-05-22T08:17:42.464Z,22.63
2023-05-22T08:20:11.799Z,22.54
2023-05-22T08:22:40.613Z,22.73
2023-05-22T08:25:09.838Z,22.75
2023-05-22T08:27:37.272Z,22.70
2023-05-22T08:30:05.696Z,22.88
2023-05-22T08:32:33.288Z,22.68
2023-05-22T08:35:01.759Z,22.60
2023-05-22T08:37:29.376Z,22.77
2023-05-22T08:39:57.114Z,22.93
2023-05-22T08:42:25.238Z,23.03
2023-05-22T08:44:55.567Z,23.14
2023-05-22T08:47:26.937Z,23.39
2023-05-22T08:49:59.077Z,23.44
2023-05-22T08:52:42.062Z,23.18
2023-05-22T08:55:10.634Z,23.27
2023-05-22T08:57:38.938Z,23.31
2023-05-22T09:00:09.591Z,23.62
2023-05-22T09:02:42.567Z,23.80
2023-05-22T09:05:10.462Z,23.89
2023-05-22T09:07:39.299Z,23.68
2023-05-22T09:10:08.400Z,24.05
2023-05-22T09:12:36.085Z,24.13
2023-05-22T09:15:11.332Z,24.02
2023-05-22T09:17:41.889Z,24.45
2023-05-22T09:20:13.467Z,24.71
2023-05-22T09:22:41.008Z,24.78
2023-05-22T09:25:09.141Z,24.74
2023-05-22T09:27:36.542Z,25.00
2023-05-22T09:30:04.649Z,25.19
2023-05-22T09:32:32.424Z,25.54
2023-05-22T09:35:04.920Z,26.55
2023-05-22T09:37:36.809Z,27.48
2023-05-22T09:40:11.770Z,28.64
2023-05-22T09:42:39.096Z,29.46
2023-05-22T09:45:08.472Z,32.13
2023-05-22T09:47:36.533Z,32.73
2023-05-22T09:50:07.427Z,33.71
2023-05-22T09:52:37.332Z,34.83
2023-05-22T09:55:09.543Z,36.51
2023-05-22T09:57:48.362Z,35.75
2023-05-22T10:00:19.918Z,35.46
2023-05-22T10:02:56.045Z,36.76
2023-05-22T10:05:31.571Z,39.98
2023-05-22T10:08:10.845Z,42.18
2023-05-22T10:10:41.176Z,42.91
2023-05-22T10:13:09.356Z,44.28
2023-05-22T10:15:38.643Z,44.84
2023-05-22T10:18:06.537Z,46.27
2023-05-22T10:20:35.016Z,46.11
2023-05-22T10:23:04.209Z,46.01
2023-05-22T10:25:32.571Z,44.84
2023-05-22T10:28:02.353Z,46.25
2023-05-22T10:30:40.553Z,46.21
2023-05-22T10:33:16.971Z,44.95
2023-05-22T10:36:07.723Z,40.33
2023-05-22T10:39:26.333Z,36.27
2023-05-22T10:41:54.253Z,35.17
2023-05-22T10:44:22.861Z,33.64
2023-05-22T10:46:50.832Z,32.97
2023-05-22T10:49:24.296Z,32.03
2023-05-22T10:51:58.391Z,30.68
2023-05-22T10:54:43.804Z,30.42
2023-05-22T10:57:17.357Z,30.02
2023-05-22T10:59:48.109Z,30.05
2023-05-22T11:02:43.693Z,29.98
2023-05-22T11:05:22.475Z,29.66
2023-05-22T11:07:50.587Z,29.61
2023-05-22T11:10:47.936Z,29.52
2023-05-22T11:13:17.957Z,29.67
2023-05-22T11:15:49.143Z,29.96
2023-05-22T11:18:17.664Z,29.37
2023-05-22T11:20:47.209Z,29.26
2023-05-22T11:23:15.390Z,29.72
2023-05-22T11:25:42.866Z,29.85
2023-05-22T11:28:11.934Z,30.00
2023-05-22T11:30:41.789Z,29.85
2023-05-22T11:33:09.917Z,30.20
2023-05-22T11:35:38.791Z,30.33
2023-05-22T11:38:07.280Z,30.26
2023-05-22T11:40:34.951Z,30.28
2023-05-22T11:43:04.104Z,30.36
2023-05-22T11:45:31.696Z,30.37
2023-05-22T11:47:59.169Z,30.02
2023-05-22T11:50:41.086Z,29.90
2023-05-22T11:53:09.696Z,29.88
2023-05-22T11:55:37.341Z,29.47
2023-05-22T11:58:04.681Z,29.42
2023-05-22T12:00:32.591Z,29.32
2023-05-22T12:03:00.074Z,29.56
2023-05-22T12:05:27.842Z,29.66
2023-05-22T12:07:55.376Z,29.55
2023-05-22T12:10:23.072Z,28.91
2023-05-22T12:12:50.440Z,28.81
2023-05-22T12:15:21.320Z,28.67
2023-05-22T12:17:48.771Z,28.33
2023-05-22T12:20:16.492Z,28.58
2023-05-22T12:22:44.621Z,28.54
2023-05-22T12:25:17.513Z,28.50
2023-05-22T12:27:46.073Z,28.65
2023-05-22T12:30:15.156Z,28.66
2023-05-22T12:32:49.706Z,28.42
2023-05-22T12:35:19.152Z,28.36
2023-05-22T12:37:51.885Z,27.58
2023-05-22T12:40:19.900Z,27.15
2023-05-22T12:42:48.960Z,27.12
2023-05-22T12:45:18.131Z,26.88
2023-05-22T12:47:45.978Z,26.96
2023-05-22T12:50:13.796Z,27.22
2023-05-22T12:52:41.163Z,27.24
2023-05-22T12:55:11.224Z,27.48
2023-05-22T12:57:38.651Z,27.74
2023-05-22T13:00:07.346Z,27.66
2023-05-22T13:02:34.828Z,27.90
2023-05-22T13:05:02.673Z,28.13
2023-05-22T13:07:30.088Z,28.51
2023-05-22T13:09:57.718Z,28.66
2023-05-22T13:12:27.262Z,28.97
2023-05-22T13:14:54.848Z,28.99
2023-05-22T13:17:22.300Z,29.01
2023-05-22T13:19:50.026Z,28.88
2023-05-22T13:22:17.782Z,28.97
2023-05-22T13:24:45.400Z,28.91
2023-05-22T13:27:12.781Z,28.97
2023-05-22T13:29:40.680Z,28.80
2023-05-22T13:32:08.040Z,28.48
2023-05-22T13:34:35.779Z,28.59
2023-05-22T13:37:03.247Z,28.31
2023-05-22T13:39:31.213Z,28.38
2023-05-22T13:41:58.589Z,27.92
2023-05-22T13:44:26.643Z,27.94
2023-05-22T13:46:54.347Z,27.66
2023-05-22T13:49:22.060Z,27.54
2023-05-22T13:51:49.326Z,27.45
2023-05-22T13:54:16.990Z,27.36
2023-05-22T13:56:44.517Z,27.33
2023-05-22T13:59:12.130Z,27.30
2023-05-22T14:01:39.713Z,27.36
2023-05-22T14:04:07.436Z,27.31
2023-05-22T14:06:34.846Z,27.41
2023-05-22T14:09:02.901Z,27.31
2023-05-22T14:11:30.465Z,27.19
2023-05-22T14:13:58.111Z,26.81
2023-05-22T14:16:25.557Z,26.80
2023-05-22T14:18:53.410Z,26.90
2023-05-22T14:21:21.027Z,26.81
2023-05-22T14:23:48.676Z,26.91
2023-05-22T14:26:16.107Z,26.83
2023-05-22T14:28:43.893Z,26.87
2023-05-22T14:31:11.291Z,26.87
2023-05-22T14:33:38.862Z,26.86
2023-05-22T14:36:06.543Z,27.06
2023-05-22T14:38:34.518Z,27.04
2023-05-22T14:41:02.852Z,26.82
2023-05-22T14:43:30.636Z,26.75
2023-05-22T14:45:59.292Z,26.86
2023-05-22T14:48:29.420Z,26.79
2023-05-22T14:50:56.930Z,26.74
2023-05-22T14:53:24.808Z,26.87
2023-05-22T14:55:52.085Z,26.78
2023-05-22T14:58:20.631Z,26.84
2023-05-22T15:00:47.906Z,26.67
2023-05-22T15:03:15.536Z,26.48
2023-05-22T15:05:42.806Z,26.55
2023-05-22T15:08:10.488Z,26.55
2023-05-22T15:10:37.819Z,26.27
2023-05-22T15:13:05.742Z,26.09
2023-05-22T15:15:33.328Z,26.10
2023-05-22T15:18:02.913Z,26.25
2023-05-22T15:20:31.202Z,26.19
2023-05-22T15:22:59.855Z,25.99
2023-05-22T15:25:27.460Z,26.08
2023-05-22T15:27:55.086Z,26.12
2023-05-22T15:30:23.706Z,26.11
2023-05-22T15:32:51.487Z,26.17
2023-05-22T15:35:18.832Z,26.12
2023-05-22T15:37:46.593Z,26.13
2023-05-22T15:40:17.433Z,26.14
2023-05-22T15:42:45.193Z,26.16
2023-05-22T15:45:12.603Z,26.00
2023-05-22T15:47:43.072Z,26.03
2023-05-22T15:50:11.122Z,25.98
2023-05-22T15:52:39.081Z,26.09
2023-05-22T15:55:06.936Z,25.91
2023-05-22T15:57:34.498Z,25.84
2023-05-22T16:00:01.895Z,25.94
2023-05-22T16:02:29.491Z,25.84
2023-05-22T16:04:56.916Z,25.88
2023-05-22T16:07:24.579Z,25.84
2023-05-22T16:09:52.002Z,25.65
2023-05-22T16:12:19.662Z,25.73
2023-05-22T16:14:47.009Z,25.55
2023-05-22T16:17:14.587Z,25.50
2023-05-22T16:19:42.192Z,25.50
2023-05-22T16:22:09.928Z,25.30
2023-05-22T16:24:37.278Z,25.33
2023-05-22T16:27:05.584Z,25.37
2023-05-22T16:29:33.076Z,25.22
2023-05-22T16:32:00.841Z,25.16
2023-05-22T16:34:29.821Z,25.11
2023-05-22T16:36:57.452Z,24.97
2023-05-22T16:39:27.240Z,24.88
2023-05-22T16:41:54.840Z,24.86
2023-05-22T16:44:22.150Z,24.75
2023-05-22T16:46:50.011Z,24.63
2023-05-22T16:49:17.404Z,24.44
2023-05-22T16:51:45.030Z,24.41
2023-05-22T16:54:12.507Z,24.47
2023-05-22T16:56:40.079Z,24.40
2023-05-22T16:59:07.383Z,24.36
2023-05-22T17:01:35.045Z,24.30
2023-05-22T17:04:02.342Z,24.07
2023-05-22T17:06:30.135Z,23.88
2023-05-22T17:08:57.884Z,23.84
2023-05-22T17:11:26.435Z,23.70
2023-05-22T17:13:53.856Z,23.65
2023-05-22T17:16:21.467Z,23.60
2023-05-22T17:18:48.820Z,23.67
2023-05-22T17:21:17.563Z,23.67
2023-05-22T17:23:44.817Z,23.69
2023-05-22T17:26:14.378Z,23.50
2023-05-22T17:28:41.643Z,23.38
2023-05-22T17:31:09.341Z,23.41
2023-05-22T17:33:36.631Z,23.28
2023-05-22T17:36:04.601Z,23.17
2023-05-22T17:38:31.976Z,23.01
2023-05-22T17:41:00.900Z,22.96
2023-05-22T17:43:28.326Z,22.86
2023-05-22T17:45:55.966Z,22.82
2023-05-22T17:48:27.372Z,22.71
2023-05-22T17:50:55.696Z,22.62
2023-05-22T17:53:23.138Z,22.48
2023-05-22T17:55:52.618Z,22.44
2023-05-22T17:58:21.060Z,22.41
2023-05-22T18:00:49.209Z,22.21
2023-05-22T18:03:21.300Z,22.14
2023-05-22T18:05:50.601Z,22.06
2023-05-22T18:08:18.714Z,21.92
2023-05-22T18:10:46.363Z,21.87
2023-05-22T18:13:13.716Z,21.69
2023-05-22T18:15:41.592Z,21.53
2023-05-22T18:18:10.699Z,21.25
2023-05-22T18:20:39.932Z,21.30
2023-05-22T18:23:07.413Z,21.16
2023-05-22T18:25:35.022Z,21.11
2023-05-22T18:28:02.435Z,21.00
2023-05-22T18:30:30.410Z,20.92
2023-05-22T18:32:57.853Z,20.81
2023-05-22T18:35:25.598Z,20.82
2023-05-22T18:37:53.045Z,20.78
2023-05-22T18:40:20.814Z,20.70
2023-05-22T18:42:48.210Z,20.65
2023-05-22T18:45:15.933Z,20.56
2023-05-22T18:47:43.339Z,20.54
2023-05-22T18:50:12.217Z,20.40
2023-05-22T18:52:40.183Z,20.35
2023-05-22T18:55:08.771Z,20.33
2023-05-22T18:57:36.358Z,20.28
2023-05-22T19:00:04.625Z,20.19
2023-05-22T19:02:32.107Z,20.17
2023-05-22T19:04:59.926Z,20.11
2023-05-22T19:07:27.367Z,20.10
2023-05-22T19:09:54.912Z,20.02
2023-05-22T19:12:24.702Z,20.00
2023-05-22T19:14:52.642Z,20.02
2023-05-22T19:17:19.957Z,19.97
2023-05-22T19:19:47.794Z,19.91
2023-05-22T19:22:17.846Z,19.92
2023-05-22T19:24:45.689Z,19.84
2023-05-22T19:27:13.030Z,19.79
2023-05-22T19:29:40.599Z,19.84
2023-05-22T19:32:07.953Z,19.82
2023-05-22T19:34:35.618Z,19.84
2023-05-22T19:37:02.993Z,19.89
2023-05-22T19:39:30.604Z,19.89
2023-05-22T19:41:57.905Z,19.90
2023-05-22T19:44:25.712Z,20.00
2023-05-22T19:46:53.107Z,19.98
2023-05-22T19:49:20.741Z,19.92
2023-05-22T19:51:48.032Z,19.92
2023-05-22T19:54:15.763Z,19.85
2023-05-22T19:56:43.293Z,19.88
2023-05-22T19:59:11.242Z,19.89
2023-05-22T20:01:38.704Z,19.88
2023-05-22T20:04:06.387Z,19.87
2023-05-22T20:06:34.103Z,19.85
2023-05-22T20:09:01.958Z,19.78
2023-05-22T20:11:29.966Z,19.70
2023-05-22T20:13:57.566Z,19.58
2023-05-22T20:16:28.542Z,19.46
2023-05-22T20:18:57.129Z,19.35
2023-05-22T20:21:24.891Z,19.32
2023-05-22T20:23:53.028Z,19.20
2023-05-22T20:26:20.528Z,19.14
2023-05-22T20:28:48.149Z,19.10
2023-05-22T20:31:15.723Z,18.98
2023-05-22T20:33:43.376Z,18.89
2023-05-22T20:36:10.776Z,18.92
2023-05-22T20:38:38.350Z,18.86
2023-05-22T20:41:08.739Z,18.76
2023-05-22T20:43:37.485Z,18.65
2023-05-22T20:46:04.938Z,18.55
2023-05-22T20:48:32.516Z,18.46
2023-05-22T20:50:59.755Z,18.42
2023-05-22T20:53:27.460Z,18.33
2023-05-22T20:55:54.803Z,18.20
2023-05-22T20:58:23.146Z,18.18
2023-05-22T21:00:50.895Z,18.04
2023-05-22T21:03:18.594Z,18.06
2023-05-22T21:05:46.105Z,18.02
2023-05-22T21:08:13.766Z,17.89
2023-05-22T21:10:41.528Z,17.81
2023-05-22T21:13:09.379Z,17.79
2023-05-22T21:15:36.881Z,17.68
2023-05-22T21:18:04.598Z,17.64
2023-05-22T21:20:31.938Z,17.66
2023-05-22T21:22:59.500Z,17.67
2023-05-22T21:25:26.831Z,17.55
2023-05-22T21:27:55.048Z,17.43
2023-05-22T21:30:22.475Z,17.37
2023-05-22T21:32:50.265Z,17.30
2023-05-22T21:35:17.646Z,17.20
2023-05-22T21:37:47.483Z,17.16
2023-05-22T21:40:14.842Z,17.17
2023-05-22T21:42:47.013Z,17.13
2023-05-22T21:45:15.083Z,17.11
2023-05-22T21:47:42.664Z,17.08
2023-05-22T21:50:10.690Z,16.97
2023-05-22T21:52:38.322Z,16.95
2023-05-22T21:55:07.630Z,16.93
2023-05-22T21:57:35.267Z,16.81
2023-05-22T22:00:02.679Z,16.72
2023-05-22T22:02:30.293Z,16.71
2023-05-22T22:04:57.593Z,16.69
2023-05-22T22:07:26.007Z,16.65
2023-05-22T22:09:53.300Z,16.56
2023-05-22T22:12:21.023Z,16.52
2023-05-22T22:14:48.298Z,16.45
2023-05-22T22:17:17.465Z,16.46
2023-05-22T22:19:44.789Z,16.48
2023-05-22T22:22:18.627Z,16.48
2023-05-22T22:24:47.529Z,16.51
2023-05-22T22:27:15.812Z,16.52
2023-05-22T22:29:43.793Z,16.55
2023-05-22T22:32:12.988Z,16.53
2023-05-22T22:34:40.560Z,16.45
2023-05-22T22:37:08.319Z,16.43
2023-05-22T22:39:35.598Z,16.43
2023-05-22T22:42:05.877Z,16.40
2023-05-22T22:44:33.169Z,16.38
2023-05-22T22:47:02.273Z,16.25
2023-05-22T22:49:29.563Z,16.17
2023-05-22T22:51:57.695Z,16.13
2023-05-22T22:54:25.058Z,16.11
2023-05-22T22:56:52.855Z,16.11
2023-05-22T22:59:20.092Z,16.05
2023-05-22T23:01:47.828Z,16.03
2023-05-22T23:04:15.356Z,15.98
2023-05-22T23:06:43.039Z,15.93
2023-05-22T23:09:11.221Z,15.93
2023-05-22T23:11:39.248Z,15.94
2023-05-22T23:14:10.440Z,15.90
2023-05-22T23:16:42.616Z,15.84
2023-05-22T23:19:11.057Z,15.83
2023-05-22T23:21:38.750Z,15.84
2023-05-22T23:24:06.606Z,15.81
2023-05-22T23:26:34.491Z,15.79
2023-05-22T23:29:01.941Z,15.75
2023-05-22T23:31:32.805Z,15.75
2023-05-22T23:34:00.206Z,15.66
2023-05-22T23:36:27.789Z,15.58
2023-05-22T23:38:55.025Z,15.60
2023-05-22T23:41:24.556Z,15.59
2023-05-22T23:43:52.051Z,15.58
2023-05-22T23:46:21.294Z,15.54
2023-05-22T23:48:55.702Z,15.55
2023-05-22T23:51:23.257Z,15.53
2023-05-22T23:53:50.532Z,15.54
2023-05-22T23:56:18.097Z,15.50
2023-05-22T23:58:45.327Z,15.50
